Time;durP1;ratioP1;P1;durP2;ratioP2;P2;SDS_P1;SDS_P2;PMS_P1;PMS_P2;Temp;Humidity;BMP_temperature;BMP_pressure;BME280_temperature;BME280_humidity;BME280_pressure;Samples;Min_cycle;Max_cycle;Signal;HPM_P1;HPM_P2
2023/03/03 00:00:26;;;;;;;60.08;33.92;;;;;;;4.70;69.26;101625.34;4939970;29;20396;-66
2023/03/03 00:02:57;;;;;;;60.05;32.78;;;;;;;4.74;68.77;101618.31;4939535;29;20087;-66
2023/03/03 00:05:24;;;;;;;59.22;34.17;;;;;;;4.69;68.83;101620.97;4922583;29;20051;-66
2023/03/03 00:07:51;;;;;;;60.47;33.35;;;;;;;4.56;69.57;101621.34;4940035;29;20051;-66
2023/03/03 00:10:19;;;;;;;55.53;32.85;;;;;;;4.68;68.85;101610.31;4939764;29;20481;-67
2023/03/03 00:12:48;;;;;;;66.00;34.70;;;;;;;4.53;69.12;101619.94;4939306;29;20055;-66
2023/03/03 00:15:18;;;;;;;60.42;33.28;;;;;;;4.50;69.60;101622.34;4923247;29;20055;-66
2023/03/03 00:17:45;;;;;;;57.10;34.00;;;;;;;4.84;69.41;101617.63;4921485;29;20407;-67
2023/03/03 00:20:34;;;;;;;55.70;31.98;;;;;;;4.57;69.31;101628.44;4939940;29;20056;-67
2023/03/03 00:23:25;;;;;;;62.78;33.95;;;;;;;4.57;69.71;101622.97;4939859;29;20056;-67
2023/03/03 00:25:53;;;;;;;60.00;33.45;;;;;;;4.43;69.99;101617.06;4938645;29;20062;-67
2023/03/03 00:28:24;;;;;;;62.40;33.05;;;;;;;4.66;69.59;101623.38;4923444;29;20051;-67
2023/03/03 00:30:53;;;;;;;63.90;33.05;;;;;;;4.73;68.94;101624.84;4937231;29;20435;-67
2023/03/03 00:33:33;;;;;;;59.90;32.90;;;;;;;5.02;68.32;101622.78;4921596;29;20059;-68
2023/03/03 00:36:27;;;;;;;60.22;33.00;;;;;;;5.01;67.88;101626.56;4938495;29;20055;-65
2023/03/03 00:38:59;;;;;;;54.38;31.90;;;;;;;4.71;68.29;101623.47;4923202;29;20050;-66
2023/03/03 00:41:27;;;;;;;60.85;33.15;;;;;;;4.30;70.42;101628.34;4920826;29;20056;-66
2023/03/03 00:43:54;;;;;;;61.70;33.75;;;;;;;4.29;70.49;101618.50;4922559;29;20051;-66
2023/03/03 00:46:23;;;;;;;59.65;33.85;;;;;;;4.65;69.40;101614.38;4928166;29;20055;-67
2023/03/03 00:48:50;;;;;;;58.58;32.75;;;;;;;4.60;69.61;101623.31;4939715;29;20052;-67
2023/03/03 00:51:33;;;;;;;59.00;32.33;;;;;;;4.59;69.55;101620.84;4936131;29;20074;-66
2023/03/03 00:54:00;;;;;;;55.50;33.10;;;;;;;4.61;69.25;101624.13;4922290;29;20056;-66
2023/03/03 00:56:28;;;;;;;66.40;32.95;;;;;;;4.43;69.95;101625.25;4938023;29;20052;-66
2023/03/03 00:58:56;;;;;;;60.67;33.55;;;;;;;4.30;70.34;101622.06;4938625;29;20050;-66
2023/03/03 01:01:25;;;;;;;58.03;32.45;;;;;;;4.54;69.93;101627.06;4936137;29;20052;-66
2023/03/03 01:03:53;;;;;;;63.65;33.78;;;;;;;4.35;70.27;101628.41;4938046;29;20082;-67
2023/03/03 01:06:21;;;;;;;59.20;33.47;;;;;;;4.66;70.04;101628.81;4921304;29;20529;-66
2023/03/03 01:08:49;;;;;;;63.50;33.15;;;;;;;4.62;69.61;101623.03;4922525;29;20062;-66
2023/03/03 01:11:21;;;;;;;59.97;33.10;;;;;;;4.36;70.08;101627.31;4920894;29;20098;-66
2023/03/03 01:13:49;;;;;;;59.35;32.63;;;;;;;4.70;69.48;101629.97;4921883;29;20078;-66
2023/03/03 01:16:17;;;;;;;60.40;32.47;;;;;;;4.35;70.01;101630.31;4937048;29;20451;-66
2023/03/03 01:18:45;;;;;;;58.50;32.95;;;;;;;4.18;71.07;101632.22;4938772;29;20055;-66
2023/03/03 01:21:12;;;;;;;58.90;32.63;;;;;;;4.33;70.80;101629.72;4937834;29;20055;-65
2023/03/03 01:23:40;;;;;;;58.22;33.72;;;;;;;4.15;71.37;101625.38;4939159;29;20051;-65
2023/03/03 01:26:07;;;;;;;60.75;32.22;;;;;;;4.06;71.71;101634.22;4920531;29;20067;-69
2023/03/03 01:28:35;;;;;;;58.08;32.80;;;;;;;3.75;72.89;101638.31;4922926;29;20043;-66
2023/03/03 01:31:04;;;;;;;59.55;33.17;;;;;;;3.72;73.44;101633.38;4937658;29;20067;-66
2023/03/03 01:33:33;;;;;;;61.58;33.13;;;;;;;3.71;73.59;101644.53;4922195;29;20063;-66
2023/03/03 01:36:01;;;;;;;60.83;33.40;;;;;;;3.72;74.14;101640.72;4937604;29;20058;-66
2023/03/03 01:38:29;;;;;;;60.00;33.55;;;;;;;3.77;73.41;101638.91;4937851;29;20048;-66
2023/03/03 01:40:58;;;;;;;61.15;32.63;;;;;;;3.59;73.92;101639.16;4920443;29;20052;-66
2023/03/03 01:43:30;;;;;;;59.35;33.17;;;;;;;3.83;73.70;101648.00;4939090;29;20048;-67
2023/03/03 01:45:57;;;;;;;58.88;32.65;;;;;;;4.07;72.93;101631.25;4926380;29;20102;-66
2023/03/03 01:48:36;;;;;;;59.20;31.80;;;;;;;3.83;73.54;101637.94;4938847;29;20066;-67
2023/03/03 01:51:06;;;;;;;64.03;33.28;;;;;;;3.78;73.49;101634.28;4936449;29;20059;-67
2023/03/03 01:53:50;;;;;;;62.25;33.80;;;;;;;3.85;73.99;101632.22;4938818;29;20055;-67
2023/03/03 01:56:17;;;;;;;62.53;32.95;;;;;;;3.72;74.11;101627.91;4936201;29;20526;-67
2023/03/03 01:58:49;;;;;;;62.55;34.00;;;;;;;3.76;74.74;101623.66;4922423;29;20055;-66
2023/03/03 02:01:21;;;;;;;59.65;33.05;;;;;;;3.67;74.86;101627.00;4921287;29;20048;-68
2023/03/03 02:03:49;;;;;;;61.35;33.10;;;;;;;3.61;74.98;101625.28;4925663;29;20492;-66
2023/03/03 02:06:19;;;;;;;59.50;33.22;;;;;;;3.88;74.79;101629.00;4924181;29;20066;-67
2023/03/03 02:09:07;;;;;;;;;;;;;;;3.70;74.50;101612.88;4926343;29;20050;-66
2023/03/03 02:11:35;;;;;;;62.20;32.42;;;;;;;3.68;75.30;101623.22;4940894;29;19923;-69
2023/03/03 02:14:03;;;;;;;62.70;34.03;;;;;;;3.89;74.72;101614.31;4941755;29;20070;-66
2023/03/03 02:16:30;;;;;;;59.05;33.53;;;;;;;3.71;75.03;101620.84;4941011;29;20055;-66
2023/03/03 02:18:59;;;;;;;61.80;32.97;;;;;;;3.61;75.47;101628.00;4924816;29;20056;-67
2023/03/03 02:21:26;;;;;;;65.45;35.33;;;;;;;3.83;75.45;101618.84;4940538;29;20522;-66
2023/03/03 02:23:58;;;;;;;63.25;34.28;;;;;;;3.82;75.40;101621.84;4941217;29;20059;-67
2023/03/03 02:26:28;;;;;;;61.13;32.75;;;;;;;3.69;75.25;101617.53;4939396;29;20068;-67
2023/03/03 02:29:00;;;;;;;62.03;33.25;;;;;;;3.78;75.24;101616.06;4909022;29;20059;-67
2023/03/03 02:31:32;;;;;;;60.97;33.42;;;;;;;3.84;75.77;101606.88;4938821;29;20491;-67
2023/03/03 02:33:59;;;;;;;62.78;34.55;;;;;;;3.64;76.02;101616.59;4893905;29;20075;-68
2023/03/03 02:36:30;;;;;;;63.80;34.05;;;;;;;3.38;76.72;101620.78;4927773;29;20074;-66
2023/03/03 02:39:25;;;;;;;65.10;35.85;;;;;;;3.11;78.87;101622.41;4921482;29;20059;-67
2023/03/03 02:42:14;;;;;;;65.60;35.30;;;;;;;3.11;79.42;101617.81;4907055;29;20059;-67
2023/03/03 02:44:47;;;;;;;71.50;34.78;;;;;;;3.08;79.51;101612.03;4918699;29;20054;-66
2023/03/03 02:47:15;;;;;;;75.35;34.97;;;;;;;3.51;78.97;101611.44;4932679;29;20129;-66
2023/03/03 02:49:44;;;;;;;62.97;33.13;;;;;;;3.29;78.34;101622.22;4905766;29;20052;-66
2023/03/03 02:52:13;;;;;;;67.70;34.70;;;;;;;3.18;79.28;101621.22;4935980;29;20051;-66
2023/03/03 02:54:44;;;;;;;64.75;34.55;;;;;;;3.43;78.53;101626.31;4940656;29;20124;-66
2023/03/03 02:57:11;;;;;;;64.20;34.72;;;;;;;3.10;79.03;101627.03;4939039;29;20059;-66
2023/03/03 02:59:38;;;;;;;66.45;34.00;;;;;;;3.31;79.07;101623.63;4909092;29;20091;-66
2023/03/03 03:02:11;;;;;;;61.88;34.30;;;;;;;3.39;78.98;101625.13;4923470;29;20047;-66
2023/03/03 03:04:38;;;;;;;67.30;36.50;;;;;;;3.30;79.15;101632.03;4940655;29;20051;-68
2023/03/03 03:07:06;;;;;;;71.20;39.70;;;;;;;3.44;78.70;101627.94;4940266;29;20043;-66
2023/03/03 03:09:36;;;;;;;;;;;;;;;3.13;79.77;101621.13;4940636;29;20056;-66
2023/03/03 03:12:04;;;;;;;65.10;34.35;;;;;;;3.12;80.42;101622.16;4923270;29;19930;-67
2023/03/03 03:14:34;;;;;;;65.90;35.45;;;;;;;3.10;80.67;101616.13;4939990;29;20048;-66
2023/03/03 03:17:01;;;;;;;72.95;36.20;;;;;;;3.03;80.82;101615.44;4939818;29;20062;-67
2023/03/03 03:19:29;;;;;;;74.05;36.35;;;;;;;3.22;80.73;101627.00;4923799;29;20388;-67
2023/03/03 03:22:00;;;;;;;70.97;35.97;;;;;;;3.22;80.28;101616.94;4938876;29;20051;-67
2023/03/03 03:24:29;;;;;;;65.88;35.05;;;;;;;3.29;79.98;101620.34;4924352;29;20070;-67
2023/03/03 03:27:01;;;;;;;72.60;36.33;;;;;;;3.22;80.21;101621.56;4931354;29;20048;-67
2023/03/03 03:29:30;;;;;;;66.60;35.55;;;;;;;3.43;79.50;101608.06;4941850;29;20471;-66
2023/03/03 03:31:57;;;;;;;64.40;36.15;;;;;;;3.37;79.35;101621.84;4938455;29;20519;-67
2023/03/03 03:34:25;;;;;;;66.00;34.33;;;;;;;3.26;79.86;101620.81;4940545;29;20065;-67
2023/03/03 03:36:54;;;;;;;70.05;36.28;;;;;;;3.23;79.73;101624.03;4922330;29;20052;-67
2023/03/03 03:39:23;;;;;;;64.67;35.10;;;;;;;2.95;80.57;101624.00;4923569;29;20085;-67
2023/03/03 03:41:52;;;;;;;66.40;35.10;;;;;;;2.76;82.02;101618.97;4922764;29;20051;-66
2023/03/03 03:44:20;;;;;;;73.35;36.10;;;;;;;2.92;81.59;101629.94;4935977;29;20052;-67
2023/03/03 03:46:48;;;;;;;63.53;34.30;;;;;;;2.69;81.97;101621.81;4931946;29;20060;-67
2023/03/03 03:49:15;;;;;;;65.65;34.45;;;;;;;2.71;82.40;101629.75;4939890;29;20518;-67
2023/03/03 03:51:43;;;;;;;65.38;35.50;;;;;;;2.71;81.88;101629.75;4922421;29;20052;-68
2023/03/03 03:54:14;;;;;;;69.22;34.92;;;;;;;3.04;81.51;101633.44;4939307;29;20063;-66
2023/03/03 03:56:42;;;;;;;63.63;35.35;;;;;;;2.94;81.33;101635.13;4938231;29;20067;-66
2023/03/03 03:59:10;;;;;;;68.85;36.53;;;;;;;3.12;80.88;101635.78;4940844;29;20058;-66
2023/03/03 04:01:38;;;;;;;64.95;34.60;;;;;;;2.98;80.83;101636.31;4922382;29;20044;-67
2023/03/03 04:04:05;;;;;;;69.93;35.67;;;;;;;3.15;80.35;101635.31;4923354;29;20066;-67
2023/03/03 04:06:33;;;;;;;69.70;36.33;;;;;;;3.15;80.36;101642.66;4921813;29;20067;-67
2023/03/03 04:09:01;;;;;;;69.68;35.63;;;;;;;2.86;81.46;101643.69;4939309;29;20059;-65
2023/03/03 04:11:30;;;;;;;69.47;36.22;;;;;;;2.97;81.41;101649.09;4937690;29;20051;-66
2023/03/03 04:13:58;;;;;;;68.90;36.10;;;;;;;3.05;81.57;101651.41;4939457;29;20056;-67
2023/03/03 04:16:26;;;;;;;68.82;36.45;;;;;;;3.34;80.09;101644.94;4938425;29;20052;-66
2023/03/03 04:18:54;;;;;;;72.72;36.50;;;;;;;3.17;80.64;101649.47;4939082;29;20060;-65
2023/03/03 04:21:21;;;;;;;66.63;36.55;;;;;;;3.27;80.37;101646.97;4937794;29;20051;-67
2023/03/03 04:23:52;;;;;;;69.18;36.42;;;;;;;2.95;80.99;101640.34;4907697;29;20060;-66
2023/03/03 04:26:19;;;;;;;73.50;36.83;;;;;;;2.81;82.02;101638.94;4937325;29;20066;-69
2023/03/03 04:28:48;;;;;;;68.43;35.95;;;;;;;2.98;81.74;101647.19;4939107;29;20047;-66
2023/03/03 04:31:15;;;;;;;66.70;36.60;;;;;;;3.03;81.50;101639.94;4937388;29;20067;-66
2023/03/03 04:33:43;;;;;;;78.18;37.08;;;;;;;2.88;82.04;101655.13;4939463;29;20056;-66
2023/03/03 04:36:10;;;;;;;67.10;35.40;;;;;;;2.78;82.58;101655.75;4936859;29;20055;-67
2023/03/03 04:38:38;;;;;;;70.63;36.30;;;;;;;3.10;81.50;101653.44;4923060;29;20055;-66
2023/03/03 04:41:05;;;;;;;69.05;36.92;;;;;;;2.82;82.32;101653.38;4938563;29;20047;-67
2023/03/03 04:43:37;;;;;;;66.43;36.35;;;;;;;2.54;83.79;101664.19;4923672;29;20051;-66
2023/03/03 04:46:05;;;;;;;74.53;37.83;;;;;;;2.46;84.42;101659.09;4927523;29;20056;-66
2023/03/03 04:48:33;;;;;;;76.25;38.33;;;;;;;2.68;84.39;101658.25;4938511;29;20051;-66
2023/03/03 04:51:00;;;;;;;72.97;38.03;;;;;;;2.48;85.37;101662.38;4937029;29;20055;-65
2023/03/03 04:53:30;;;;;;;65.70;36.90;;;;;;;2.44;85.12;101664.75;4922806;29;20044;-68
2023/03/03 04:55:57;;;;;;;71.82;37.65;;;;;;;2.61;84.93;101659.44;4937043;29;20059;-66
2023/03/03 04:58:25;;;;;;;67.00;35.95;;;;;;;2.72;84.46;101661.34;4939922;29;20066;-67
2023/03/03 05:00:55;;;;;;;75.53;37.97;;;;;;;2.54;85.06;101661.47;4936767;29;20047;-66
2023/03/03 05:03:25;;;;;;;70.25;37.22;;;;;;;2.63;85.11;101660.03;4938735;29;20051;-66
2023/03/03 05:05:53;;;;;;;73.15;37.50;;;;;;;2.71;84.58;101655.06;4936923;29;20059;-66
2023/03/03 05:08:20;;;;;;;68.70;37.35;;;;;;;2.82;83.97;101661.53;4939664;29;20065;-69
2023/03/03 05:10:52;;;;;;;71.88;37.97;;;;;;;2.86;84.09;101658.09;4937882;29;20070;-65
2023/03/03 05:13:20;;;;;;;66.90;36.17;;;;;;;2.80;84.09;101656.34;4939488;29;20054;-66
2023/03/03 05:15:54;;;;;;;73.88;39.15;;;;;;;2.75;84.29;101656.25;4938136;29;20066;-67
2023/03/03 05:18:23;;;;;;;68.30;36.80;;;;;;;2.64;84.66;101662.50;4907287;29;20055;-66
2023/03/03 05:20:51;;;;;;;71.77;38.83;;;;;;;2.67;85.23;101661.22;4937580;29;20067;-66
2023/03/03 05:23:19;;;;;;;70.53;37.13;;;;;;;3.01;84.67;101653.00;4921834;29;20499;-66
2023/03/03 05:25:48;;;;;;;68.50;37.53;;;;;;;3.03;83.74;101656.28;4937998;29;20067;-65
2023/03/03 05:28:16;;;;;;;66.35;36.40;;;;;;;3.09;83.53;101658.03;4922567;29;20117;-67
2023/03/03 05:30:44;;;;;;;65.40;37.30;;;;;;;2.97;83.99;101659.13;4920436;29;20071;-66
2023/03/03 05:33:13;;;;;;;68.32;36.17;;;;;;;3.00;84.14;101656.75;4939092;29;20503;-67
2023/03/03 05:35:41;;;;;;;71.05;37.35;;;;;;;2.79;84.21;101654.69;4937330;29;20060;-66
2023/03/03 05:38:09;;;;;;;70.50;37.65;;;;;;;2.99;84.33;101660.56;4938176;29;20546;-66
2023/03/03 05:40:37;;;;;;;73.00;38.40;;;;;;;2.93;84.63;101671.59;4938311;29;20511;-66
2023/03/03 05:43:05;;;;;;;71.60;37.03;;;;;;;2.93;84.07;101664.22;4922298;29;20044;-67
2023/03/03 05:45:34;;;;;;;70.50;37.92;;;;;;;2.98;84.02;101669.78;4928040;29;20056;-67
2023/03/03 05:48:02;;;;;;;69.10;36.17;;;;;;;3.00;83.71;101655.97;4921831;29;20058;-66
2023/03/03 05:50:31;;;;;;;74.10;37.83;;;;;;;3.16;83.65;101666.06;4938063;29;20479;-67
2023/03/03 05:52:59;;;;;;;66.18;36.13;;;;;;;3.36;82.58;101659.13;4874868;29;20056;-68
2023/03/03 05:55:27;;;;;;;69.85;37.35;;;;;;;3.03;82.58;101671.78;4937838;29;20059;-66
2023/03/03 05:57:55;;;;;;;65.32;37.13;;;;;;;2.95;84.11;101663.97;4921015;29;20067;-67
2023/03/03 06:00:22;;;;;;;64.68;36.83;;;;;;;3.00;83.73;101666.84;4920814;29;20088;-68
2023/03/03 06:02:49;;;;;;;71.70;36.97;;;;;;;2.95;84.19;101674.88;4921359;29;20059;-65
2023/03/03 06:05:17;;;;;;;65.55;35.83;;;;;;;2.97;84.35;101667.28;4938601;29;20040;-67
2023/03/03 06:07:45;;;;;;;66.10;36.70;;;;;;;3.07;84.11;101675.66;4938215;29;20047;-67
2023/03/03 06:10:12;;;;;;;66.68;36.05;;;;;;;3.24;83.08;101679.31;4938522;29;20052;-66
2023/03/03 06:12:41;;;;;;;67.90;36.77;;;;;;;3.36;82.11;101669.19;4936439;29;20044;-66
2023/03/03 06:15:09;;;;;;;68.80;37.25;;;;;;;3.16;82.30;101671.50;4939148;29;20292;-67
2023/03/03 06:17:37;;;;;;;65.88;37.30;;;;;;;2.86;84.07;101670.88;4920629;29;20052;-68
2023/03/03 06:20:05;;;;;;;68.88;37.97;;;;;;;2.96;84.09;101676.53;4938954;29;20075;-66
2023/03/03 06:22:33;;;;;;;67.13;37.75;;;;;;;2.92;83.93;101681.63;4936015;29;20052;-67
2023/03/03 06:25:00;;;;;;;70.40;38.92;;;;;;;2.81;84.36;101673.47;4938650;29;20106;-67
2023/03/03 06:27:27;;;;;;;74.78;38.92;;;;;;;2.99;84.44;101676.88;4937291;29;20059;-66
2023/03/03 06:29:55;;;;;;;68.80;37.22;;;;;;;2.92;84.11;101686.25;4938836;29;20070;-67
2023/03/03 06:32:22;;;;;;;73.85;38.67;;;;;;;3.00;84.02;101692.13;4935865;29;20055;-67
2023/03/03 06:34:49;;;;;;;68.50;38.95;;;;;;;2.85;84.59;101689.09;4921794;29;20491;-66
2023/03/03 06:37:17;;;;;;;72.25;37.97;;;;;;;2.98;84.34;101704.34;4937436;29;20056;-68
2023/03/03 06:39:44;;;;;;;71.45;39.58;;;;;;;2.89;84.66;101705.78;4921722;29;20059;-67
2023/03/03 06:42:12;;;;;;;71.78;39.85;;;;;;;2.91;84.72;101711.81;4936864;29;20062;-66
2023/03/03 06:44:39;;;;;;;72.60;39.80;;;;;;;2.88;85.18;101712.25;4931258;29;20047;-66
2023/03/03 06:47:06;;;;;;;71.38;38.88;;;;;;;2.93;84.98;101715.13;4916088;29;20067;-66
2023/03/03 06:49:34;;;;;;;70.00;38.72;;;;;;;3.19;84.04;101723.56;4941183;29;20056;-66
2023/03/03 06:52:10;;;;;;;77.18;40.33;;;;;;;2.89;84.00;101728.38;4907177;29;20059;-65
2023/03/03 06:54:38;;;;;;;75.50;38.65;;;;;;;2.85;85.11;101729.06;4924614;29;20063;-66
2023/03/03 06:57:16;;;;;;;82.82;39.78;;;;;;;3.05;84.34;101732.25;4939692;29;20060;-66
2023/03/03 06:59:44;;;;;;;72.45;41.08;;;;;;;3.15;83.83;101724.31;4941960;29;20435;-67
2023/03/03 07:02:15;;;;;;;74.60;38.90;;;;;;;2.93;83.45;101737.69;4940128;29;20062;-67
2023/03/03 07:04:45;;;;;;;72.55;39.75;;;;;;;2.91;84.39;101737.09;4909075;29;20381;-67
2023/03/03 07:07:21;;;;;;;73.00;40.53;;;;;;;3.06;84.17;101737.47;4940483;29;20051;-66
2023/03/03 07:09:52;;;;;;;85.55;44.08;;;;;;;3.06;83.95;101742.06;4924419;29;20064;-66
2023/03/03 07:12:22;;;;;;;82.53;43.63;;;;;;;2.98;83.59;101750.59;4939949;29;20055;-67
2023/03/03 07:14:55;;;;;;;88.35;48.15;;;;;;;2.90;84.58;101753.66;4941260;29;20052;-66
2023/03/03 07:17:24;;;;;;;81.75;46.65;;;;;;;2.89;84.27;101761.03;4911198;29;20527;-67
2023/03/03 07:19:51;;;;;;;82.87;45.70;;;;;;;2.87;84.30;101765.03;4921644;29;20069;-65
2023/03/03 07:22:20;;;;;;;86.40;47.45;;;;;;;2.93;85.07;101764.09;4939193;29;20060;-67
2023/03/03 07:24:51;;;;;;;80.00;45.08;;;;;;;2.89;84.80;101773.78;4915279;29;20045;-66
2023/03/03 07:27:25;;;;;;;86.10;48.08;;;;;;;2.89;85.02;101768.34;4926545;29;20055;-66
2023/03/03 07:29:55;;;;;;;72.90;39.92;;;;;;;4.71;88.80;101771.63;4904795;29;20056;-64
2023/03/03 07:32:37;;;;;;;93.30;52.63;;;;;;;3.56;80.88;101764.09;4923323;29;20512;-70
2023/03/03 07:35:37;;;;;;;91.60;50.58;;;;;;;2.92;83.00;101765.97;4918860;29;20047;-71
2023/03/03 07:38:24;;;;;;;85.93;48.30;;;;;;;3.09;83.21;101772.34;4905725;29;20055;-68
2023/03/03 07:40:54;;;;;;;108.20;58.88;;;;;;;2.81;84.23;101765.97;4924219;29;20052;-68
2023/03/03 07:43:36;;;;;;;105.55;57.72;;;;;;;2.59;85.63;101778.50;4915474;29;20143;-68
2023/03/03 07:46:10;;;;;;;98.57;52.90;;;;;;;2.54;85.85;101775.66;4909068;29;20051;-68
2023/03/03 07:48:40;;;;;;;94.25;52.67;;;;;;;2.63;86.41;101779.69;4937147;29;20059;-69
2023/03/03 07:51:40;;;;;;;101.40;54.22;;;;;;;2.70;85.70;101773.09;4912056;29;20535;-67
2023/03/03 07:54:27;;;;;;;;;;;;;;;2.86;85.61;101783.25;4917972;29;20059;-68
2023/03/03 07:57:30;;;;;;;97.20;51.58;;;;;;;2.68;85.40;101788.81;4929933;29;19923;-65
2023/03/03 08:00:27;;;;;;;91.53;50.50;;;;;;;2.61;85.80;101807.13;4907207;29;20068;-69
2023/03/03 08:03:11;;;;;;;105.25;54.22;;;;;;;3.02;85.69;101801.59;4896307;29;20068;-70
2023/03/03 08:05:44;;;;;;;113.35;58.78;;;;;;;2.53;86.20;101804.75;4911470;29;20051;-70
2023/03/03 08:08:15;;;;;;;107.32;55.15;;;;;;;2.50;86.58;101807.09;4896797;29;20416;-69
2023/03/03 08:10:53;;;;;;;106.30;58.40;;;;;;;2.40;87.75;101815.00;4920623;29;20052;-68
2023/03/03 08:13:28;;;;;;;109.72;59.50;;;;;;;2.66;87.64;101817.31;4905005;29;20060;-69
2023/03/03 08:16:15;;;;;;;114.57;59.17;;;;;;;2.51;87.34;101814.22;4921496;29;20051;-69
2023/03/03 08:18:46;;;;;;;111.45;57.20;;;;;;;2.64;87.41;101811.25;4910230;29;20060;-70
2023/03/03 08:21:14;;;;;;;110.85;57.63;;;;;;;2.55;86.81;101813.50;4915228;29;20059;-68
2023/03/03 08:23:42;;;;;;;123.00;62.35;;;;;;;2.31;89.54;101806.34;4900208;29;20067;-68
2023/03/03 08:26:11;;;;;;;119.22;62.60;;;;;;;2.32;89.17;101816.16;4915715;29;20050;-68
2023/03/03 08:28:38;;;;;;;117.88;61.58;;;;;;;2.40;88.74;101812.28;4915565;29;20048;-69
2023/03/03 08:31:06;;;;;;;113.07;60.53;;;;;;;2.52;88.14;101818.56;4921351;29;20514;-69
2023/03/03 08:33:52;;;;;;;116.85;60.70;;;;;;;2.66;87.95;101828.19;4919261;29;20070;-68
2023/03/03 08:36:19;;;;;;;106.47;59.63;;;;;;;2.87;86.79;101825.72;4919708;29;20055;-68
2023/03/03 08:38:47;;;;;;;114.88;59.42;;;;;;;2.69;87.29;101830.41;4920133;29;20067;-71
2023/03/03 08:41:14;;;;;;;109.15;60.97;;;;;;;2.73;87.20;101834.34;4916550;29;20059;-69
2023/03/03 08:43:44;;;;;;;113.13;59.42;;;;;;;2.46;87.37;101835.84;4915385;29;20071;-69
2023/03/03 08:46:11;;;;;;;119.95;63.08;;;;;;;2.49;88.21;101830.75;4920970;29;20051;-69
2023/03/03 08:48:39;;;;;;;117.13;61.80;;;;;;;2.75;87.34;101830.34;4918837;29;20095;-68
2023/03/03 08:51:06;;;;;;;123.72;60.08;;;;;;;2.47;87.19;101835.59;4923642;29;20051;-68
2023/03/03 08:53:35;;;;;;;118.70;59.78;;;;;;;2.56;87.78;101834.22;4914154;29;20052;-69
2023/03/03 08:56:04;;;;;;;107.95;55.80;;;;;;;2.70;86.94;101824.78;4890636;29;20063;-67
2023/03/03 08:58:31;;;;;;;114.47;60.55;;;;;;;2.66;87.43;101825.47;4918335;29;20047;-71
2023/03/03 09:01:03;;;;;;;112.13;56.92;;;;;;;2.82;86.73;101832.94;4919512;29;20063;-68
2023/03/03 09:03:30;;;;;;;110.05;60.05;;;;;;;3.08;85.80;101838.75;4885724;29;20062;-67
2023/03/03 09:05:57;;;;;;;102.28;56.80;;;;;;;2.70;86.05;101840.25;4912933;29;20071;-67
2023/03/03 09:08:25;;;;;;;105.78;57.65;;;;;;;2.85;86.61;101843.34;4914846;29;20075;-69
2023/03/03 09:10:52;;;;;;;105.55;56.50;;;;;;;3.02;85.18;101847.00;4920844;29;20517;-68
2023/03/03 09:13:20;;;;;;;101.30;55.38;;;;;;;3.52;83.61;101836.47;4908557;29;20059;-69
2023/03/03 09:15:48;;;;;;;95.68;53.80;;;;;;;3.23;83.17;101843.69;4915757;29;20066;-67
2023/03/03 09:18:34;;;;;;;98.10;55.28;;;;;;;3.32;83.85;101834.94;4926005;29;20052;-67
2023/03/03 09:21:16;;;;;;;94.47;53.55;;;;;;;3.50;82.60;101835.88;4901810;29;20060;-68
2023/03/03 09:24:04;;;;;;;99.47;53.65;;;;;;;3.71;81.37;101837.94;4912765;29;20055;-68
2023/03/03 09:26:47;;;;;;;99.88;53.80;;;;;;;3.71;81.80;101848.84;4919903;29;20056;-67
2023/03/03 09:29:16;;;;;;;94.53;51.30;;;;;;;3.77;80.77;101853.31;4918737;29;20052;-63
2023/03/03 09:31:57;;;;;;;101.22;53.80;;;;;;;3.69;80.84;101854.53;4913273;29;20535;-65
2023/03/03 09:34:34;;;;;;;98.47;52.75;;;;;;;3.87;80.30;101840.72;4897103;29;20052;-66
2023/03/03 09:37:39;;;;;;;90.88;51.22;;;;;;;3.97;78.50;101851.88;4918685;29;20377;-65
2023/03/03 09:40:36;;;;;;;90.72;50.65;;;;;;;3.69;79.69;101846.38;4917553;29;20056;-66
2023/03/03 09:43:22;;;;;;;94.65;52.78;;;;;;;3.80;79.96;101852.88;4923636;29;20087;-64
2023/03/03 09:46:14;;;;;;;95.30;50.35;;;;;;;3.44;81.21;101851.25;4920558;29;20052;-65
2023/03/03 09:48:59;;;;;;;85.78;49.97;;;;;;;3.36;81.21;101848.91;4916309;29;20134;-64
2023/03/03 09:51:41;;;;;;;90.38;50.47;;;;;;;3.69;80.22;101856.44;4903429;29;20060;-64
2023/03/03 09:54:23;;;;;;;91.00;51.10;;;;;;;3.96;78.98;101847.47;4908263;29;20057;-65
2023/03/03 09:57:16;;;;;;;88.10;48.10;;;;;;;4.20;78.00;101850.94;4914233;29;20060;-65
2023/03/03 09:59:56;;;;;;;88.70;46.67;;;;;;;4.30;76.35;101848.41;4885288;29;20056;-64
2023/03/03 10:02:42;;;;;;;;;;;;;;;3.95;77.37;101847.72;4917974;29;20440;-65
2023/03/03 10:05:16;;;;;;;88.32;46.28;;;;;;;4.33;76.65;101859.66;4917925;29;19927;-65
2023/03/03 10:08:17;;;;;;;83.28;47.20;;;;;;;4.38;75.96;101858.91;4920816;29;20052;-66
2023/03/03 10:10:54;;;;;;;79.95;45.63;;;;;;;4.42;75.75;101863.66;4920518;29;20051;-67
2023/03/03 10:13:34;;;;;;;86.05;45.88;;;;;;;4.25;75.53;101870.13;4901530;29;20424;-64
2023/03/03 10:16:22;;;;;;;78.20;44.63;;;;;;;4.09;75.86;101868.16;4920955;29;20051;-66
2023/03/03 10:19:27;;;;;;;78.13;42.58;;;;;;;4.27;75.20;101876.16;4905398;29;20061;-66
2023/03/03 10:22:38;;;;;;;75.75;40.88;;;;;;;4.35;74.47;101879.34;4925019;29;20397;-65
2023/03/03 10:25:20;;;;;;;69.85;38.53;;;;;;;4.54;73.16;101886.22;4887980;29;20044;-65
2023/03/03 10:27:51;;;;;;;73.13;40.22;;;;;;;4.53;72.97;101889.22;4919238;29;20056;-66
2023/03/03 10:30:35;;;;;;;71.68;39.92;;;;;;;4.49;72.79;101888.88;4925315;29;20051;-64
2023/03/03 10:33:35;;;;;;;76.38;39.63;;;;;;;4.66;72.09;101891.63;4918573;29;20048;-65
2023/03/03 10:36:28;;;;;;;67.80;38.50;;;;;;;4.65;72.16;101889.13;4890552;29;20052;-65
2023/03/03 10:39:09;;;;;;;67.43;39.08;;;;;;;4.47;72.40;101890.19;4923081;29;20056;-65
2023/03/03 10:42:10;;;;;;;75.25;38.17;;;;;;;4.65;72.65;101886.41;4921420;29;20044;-65
2023/03/03 10:44:52;;;;;;;67.88;37.58;;;;;;;4.77;72.05;101889.91;4919641;29;20154;-66
2023/03/03 10:47:32;;;;;;;69.10;39.63;;;;;;;4.67;71.08;101889.72;4907927;29;20084;-66
2023/03/03 10:50:09;;;;;;;;;;;;;;;4.65;71.16;101876.34;4920949;29;20071;-69
2023/03/03 10:52:46;;;;;;;66.53;36.72;;;;;;;4.90;70.70;101887.66;4922757;29;19930;-66
2023/03/03 10:55:55;;;;;;;68.22;37.25;;;;;;;5.00;70.05;101874.22;4914853;29;20049;-65
2023/03/03 10:58:38;;;;;;;70.43;38.33;;;;;;;5.06;69.86;101881.38;4877562;29;20063;-66
2023/03/03 11:01:26;;;;;;;65.15;36.90;;;;;;;4.76;71.12;101886.31;4918461;29;20071;-66
2023/03/03 11:04:11;;;;;;;64.40;36.67;;;;;;;5.07;69.93;101884.94;4883817;29;20059;-65
2023/03/03 11:06:46;;;;;;;62.80;37.17;;;;;;;5.13;69.29;101881.22;4928695;29;20047;-66
2023/03/03 11:09:16;;;;;;;67.50;37.72;;;;;;;5.21;68.95;101869.88;4918772;29;20059;-66
2023/03/03 11:11:54;;;;;;;61.65;36.72;;;;;;;5.34;68.96;101874.97;4923045;29;20052;-65
2023/03/03 11:14:46;;;;;;;64.20;36.05;;;;;;;5.56;67.14;101875.88;4889827;29;20056;-67
2023/03/03 11:17:35;;;;;;;64.22;37.40;;;;;;;5.69;66.59;101867.28;4908920;29;20052;-66
2023/03/03 11:20:11;;;;;;;60.55;35.95;;;;;;;5.69;66.96;101870.03;4910264;29;20060;-65
2023/03/03 11:22:55;;;;;;;64.03;36.70;;;;;;;5.56;67.46;101873.94;4917026;29;20061;-66
2023/03/03 11:25:34;;;;;;;62.97;34.97;;;;;;;5.36;67.93;101876.41;4894014;29;20049;-67
2023/03/03 11:28:09;;;;;;;89.80;36.58;;;;;;;5.40;67.74;101872.09;4872276;29;20057;-67
2023/03/03 11:30:58;;;;;;;62.42;36.20;;;;;;;5.46;67.95;101868.34;4877063;29;20063;-65
2023/03/03 11:33:52;;;;;;;62.33;35.63;;;;;;;5.78;66.53;101870.41;4885719;29;20629;-66
2023/03/03 11:36:30;;;;;;;60.10;36.50;;;;;;;5.74;68.00;101868.19;4915711;29;20045;-67
2023/03/03 11:39:08;;;;;;;61.47;34.33;;;;;;;6.24;65.72;101861.72;4898853;29;20048;-70
2023/03/03 11:42:07;;;;;;;57.53;34.78;;;;;;;6.06;65.54;101854.69;4903217;29;20040;-68
2023/03/03 11:44:38;;;;;;;59.55;35.08;;;;;;;6.19;64.83;101857.00;4891808;29;20479;-67